createdAt,value
2023-03-11T00:00:52.669Z,97485.00
2023-03-11T00:03:20.870Z,97490.00
2023-03-11T00:05:47.590Z,97476.00
2023-03-11T00:08:17.691Z,97495.00
2023-03-11T00:10:46.110Z,97489.00
2023-03-11T00:13:14.573Z,97487.00
2023-03-11T00:15:42.535Z,97492.00
2023-03-11T00:18:09.335Z,97497.00
2023-03-11T00:20:37.984Z,97479.00
2023-03-11T00:23:06.918Z,97499.00
2023-03-11T00:25:35.122Z,97503.00
2023-03-11T00:28:02.692Z,97497.00
2023-03-11T00:30:29.376Z,97502.00
2023-03-11T00:32:57.700Z,97520.00
2023-03-11T00:35:30.415Z,97518.00
2023-03-11T00:37:59.428Z,97518.00
2023-03-11T00:40:28.641Z,97522.00
2023-03-11T00:42:55.858Z,97524.00
2023-03-11T00:45:22.718Z,97500.00
2023-03-11T00:47:50.841Z,97520.00
2023-03-11T00:50:21.372Z,97496.00
2023-03-11T00:52:49.179Z,97502.00
2023-03-11T00:55:19.671Z,97494.00
2023-03-11T00:57:46.753Z,97495.00
2023-03-11T01:00:20.208Z,97516.00
2023-03-11T01:02:46.971Z,97522.00
2023-03-11T01:05:15.263Z,97533.00
2023-03-11T01:07:41.940Z,97524.00
2023-03-11T01:10:09.405Z,97533.00
2023-03-11T01:12:36.167Z,97532.00
2023-03-11T01:15:04.164Z,97518.00
2023-03-11T01:17:30.724Z,97520.00
2023-03-11T01:19:57.301Z,97519.00
2023-03-11T01:22:23.928Z,97512.00
2023-03-11T01:24:50.536Z,97501.00
2023-03-11T01:27:17.072Z,97499.00
2023-03-11T01:29:43.557Z,97519.00
2023-03-11T01:32:11.162Z,97504.00
2023-03-11T01:34:37.763Z,97518.00
2023-03-11T01:37:04.411Z,97536.00
2023-03-11T01:39:30.965Z,97533.00
2023-03-11T01:41:57.679Z,97538.00
2023-03-11T01:44:24.868Z,97562.00
2023-03-11T01:46:52.152Z,97581.00
2023-03-11T01:49:22.414Z,97581.00
2023-03-11T01:51:55.463Z,97576.00
2023-03-11T01:54:26.479Z,97580.00
2023-03-11T01:56:55.499Z,97584.00
2023-03-11T01:59:31.790Z,97568.00
2023-03-11T02:02:17.528Z,97557.00
2023-03-11T02:04:44.968Z,97565.00
2023-03-11T02:07:12.334Z,97543.00
2023-03-11T02:09:38.976Z,97533.00
2023-03-11T02:12:07.434Z,97533.00
2023-03-11T02:14:35.720Z,97531.00
2023-03-11T02:17:03.464Z,97532.00
2023-03-11T02:19:56.402Z,97522.00
2023-03-11T02:22:24.416Z,97538.00
2023-03-11T02:25:04.698Z,97541.00
2023-03-11T02:27:35.476Z,97556.00
2023-03-11T02:30:05.107Z,97545.00
2023-03-11T02:32:34.957Z,97552.00
2023-03-11T02:35:01.889Z,97542.00
2023-03-11T02:37:28.429Z,97540.00
2023-03-11T02:40:35.195Z,97544.00
2023-03-11T02:43:09.381Z,97538.00
2023-03-11T02:45:43.815Z,97540.00
2023-03-11T02:48:11.780Z,97546.00
2023-03-11T02:50:39.866Z,97532.00
2023-03-11T02:53:07.204Z,97547.00
2023-03-11T02:55:33.912Z,97544.00
2023-03-11T02:58:00.481Z,97543.00
2023-03-11T03:00:27.791Z,97547.00
2023-03-11T03:03:02.144Z,97556.00
2023-03-11T03:05:29.017Z,97560.00
2023-03-11T03:07:57.510Z,97559.00
2023-03-11T03:10:26.997Z,97571.00
2023-03-11T03:12:53.627Z,97560.00
2023-03-11T03:15:20.436Z,97567.00
2023-03-11T03:17:48.116Z,97575.00
2023-03-11T03:20:14.988Z,97567.00
2023-03-11T03:22:47.062Z,97578.00
2023-03-11T03:25:16.874Z,97582.00
2023-03-11T03:27:43.616Z,97583.00
2023-03-11T03:30:11.252Z,97582.00
2023-03-11T03:32:38.906Z,97577.00
2023-03-11T03:35:09.877Z,97583.00
2023-03-11T03:37:53.057Z,97582.00
2023-03-11T03:40:21.421Z,97579.00
2023-03-11T03:42:48.659Z,97590.00
2023-03-11T03:45:15.566Z,97583.00
2023-03-11T03:47:42.499Z,97592.00
2023-03-11T03:50:11.296Z,97586.00
2023-03-11T03:52:40.356Z,97580.00
2023-03-11T03:55:07.569Z,97595.00
2023-03-11T03:57:34.466Z,97601.00
2023-03-11T04:00:01.256Z,97599.00
2023-03-11T04:02:28.153Z,97592.00
2023-03-11T04:04:55.803Z,97600.00
2023-03-11T04:07:22.583Z,97599.00
2023-03-11T04:09:49.245Z,97601.00
2023-03-11T04:12:17.499Z,97601.00
2023-03-11T04:14:44.931Z,97599.00
2023-03-11T04:17:12.776Z,97607.00
2023-03-11T04:19:40.275Z,97610.00
2023-03-11T04:22:07.461Z,97619.00
2023-03-11T04:24:33.994Z,97608.00
2023-03-11T04:27:01.015Z,97617.00
2023-03-11T04:29:28.150Z,97612.00
2023-03-11T04:31:55.127Z,97604.00
2023-03-11T04:34:21.726Z,97605.00
2023-03-11T04:36:53.567Z,97612.00
2023-03-11T04:39:22.543Z,97628.00
2023-03-11T04:41:49.092Z,97636.00
2023-03-11T04:44:19.866Z,97626.00
2023-03-11T04:46:47.562Z,97639.00
2023-03-11T04:49:15.158Z,97622.00
2023-03-11T04:51:41.964Z,97630.00
2023-03-11T04:54:09.381Z,97638.00
2023-03-11T04:56:36.034Z,97622.00
2023-03-11T04:59:03.929Z,97623.00
2023-03-11T05:01:32.816Z,97626.00
2023-03-11T05:04:02.589Z,97627.00
2023-03-11T05:06:29.254Z,97628.00
2023-03-11T05:08:56.159Z,97625.00
2023-03-11T05:11:22.783Z,97621.00
2023-03-11T05:13:49.331Z,97626.00
2023-03-11T05:16:17.079Z,97635.00
2023-03-11T05:18:43.815Z,97631.00
2023-03-11T05:21:13.374Z,97618.00
2023-03-11T05:23:39.993Z,97626.00
2023-03-11T05:26:06.718Z,97630.00
2023-03-11T05:28:34.188Z,97634.00
2023-03-11T05:31:02.037Z,97632.00
2023-03-11T05:33:35.297Z,97638.00
2023-03-11T05:36:09.950Z,97634.00
2023-03-11T05:38:39.643Z,97628.00
2023-03-11T05:41:06.662Z,97644.00
2023-03-11T05:43:34.029Z,97644.00
2023-03-11T05:46:00.587Z,97645.00
2023-03-11T05:48:27.497Z,97636.00
2023-03-11T05:50:54.067Z,97644.00
2023-03-11T05:53:21.886Z,97637.00
2023-03-11T05:55:58.924Z,97647.00
2023-03-11T05:58:27.382Z,97650.00
2023-03-11T06:00:53.989Z,97658.00
2023-03-11T06:03:20.787Z,97647.00
2023-03-11T06:05:48.392Z,97663.00
2023-03-11T06:08:15.274Z,97668.00
2023-03-11T06:10:42.517Z,97668.00
2023-03-11T06:13:09.852Z,97665.00
2023-03-11T06:15:46.051Z,97662.00
2023-03-11T06:18:12.812Z,97668.00
2023-03-11T06:20:39.464Z,97670.00
2023-03-11T06:23:05.966Z,97667.00
2023-03-11T06:25:32.775Z,97679.00
2023-03-11T06:28:01.346Z,97674.00
2023-03-11T06:30:28.247Z,97681.00
2023-03-11T06:33:02.526Z,97687.00
2023-03-11T06:35:29.058Z,97693.00
2023-03-11T06:37:55.605Z,97698.00
2023-03-11T06:40:22.517Z,97696.00
2023-03-11T06:42:48.994Z,97708.00
2023-03-11T06:45:18.864Z,97698.00
2023-03-11T06:47:47.052Z,97701.00
2023-03-11T06:50:14.223Z,97701.00
2023-03-11T06:52:40.828Z,97707.00
2023-03-11T06:55:09.035Z,97711.00
2023-03-11T06:57:36.507Z,97711.00
2023-03-11T07:00:07.806Z,97710.00
2023-03-11T07:02:35.475Z,97710.00
2023-03-11T07:05:02.200Z,97720.00
2023-03-11T07:07:28.940Z,97720.00
2023-03-11T07:09:57.731Z,97723.00
2023-03-11T07:12:25.396Z,97724.00
2023-03-11T07:14:56.676Z,97734.00
2023-03-11T07:17:23.646Z,97737.00
2023-03-11T07:19:52.736Z,97743.00
2023-03-11T07:22:19.312Z,97741.00
2023-03-11T07:24:47.742Z,97755.00
2023-03-11T07:27:15.200Z,97752.00
2023-03-11T07:29:41.958Z,97757.00
2023-03-11T07:32:09.463Z,97759.00
2023-03-11T07:34:35.993Z,97771.00
2023-03-11T07:37:03.183Z,97770.00
2023-03-11T07:39:29.796Z,97775.00
2023-03-11T07:41:56.326Z,97775.00
2023-03-11T07:44:29.053Z,97790.00
2023-03-11T07:46:55.542Z,97793.00
2023-03-11T07:49:22.080Z,97795.00
2023-03-11T07:51:48.561Z,97806.00
2023-03-11T07:54:15.080Z,97806.00
2023-03-11T07:56:41.991Z,97810.00
2023-03-11T07:59:08.547Z,97821.00
2023-03-11T08:01:40.644Z,97817.00
2023-03-11T08:04:12.932Z,97826.00
2023-03-11T08:06:42.932Z,97815.00
2023-03-11T08:09:09.516Z,97827.00
2023-03-11T08:11:36.713Z,97826.00
2023-03-11T08:14:03.778Z,97824.00
2023-03-11T08:16:30.998Z,97822.00
2023-03-11T08:18:57.775Z,97822.00
2023-03-11T08:21:26.684Z,97825.00
2023-03-11T08:23:56.683Z,97818.00
2023-03-11T08:26:23.682Z,97834.00
2023-03-11T08:28:50.268Z,97839.00
2023-03-11T08:31:21.091Z,97826.00
2023-03-11T08:33:52.062Z,97831.00
2023-03-11T08:36:19.846Z,97836.00
2023-03-11T08:38:46.601Z,97844.00
2023-03-11T08:41:13.414Z,97844.00
2023-03-11T08:43:40.393Z,97852.00
2023-03-11T08:46:08.029Z,97844.00
2023-03-11T08:48:36.148Z,97843.00
2023-03-11T08:51:03.079Z,97841.00
2023-03-11T08:53:29.631Z,97834.00
2023-03-11T08:55:56.122Z,97845.00
2023-03-11T08:58:22.662Z,97845.00
2023-03-11T09:00:49.213Z,97853.00
2023-03-11T09:03:15.718Z,97863.00
2023-03-11T09:05:42.285Z,97859.00
2023-03-11T09:08:08.876Z,97856.00
2023-03-11T09:10:35.386Z,97863.00
2023-03-11T09:13:01.983Z,97869.00
2023-03-11T09:15:28.699Z,97855.00
2023-03-11T09:17:55.785Z,97856.00
2023-03-11T09:20:22.607Z,97863.00
2023-03-11T09:22:49.167Z,97862.00
2023-03-11T09:25:15.768Z,97852.00
2023-03-11T09:27:43.056Z,97847.00
2023-03-11T09:30:11.088Z,97863.00
2023-03-11T09:32:37.678Z,97858.00
2023-03-11T09:35:04.987Z,97858.00
2023-03-11T09:37:31.612Z,97867.00
2023-03-11T09:39:58.140Z,97858.00
2023-03-11T09:42:48.593Z,97857.00
2023-03-11T09:45:24.041Z,97855.00
2023-03-11T09:48:09.169Z,97857.00
2023-03-11T09:50:53.918Z,97867.00
2023-03-11T09:53:40.536Z,97862.00
2023-03-11T09:56:09.839Z,97861.00
2023-03-11T09:58:47.217Z,97861.00
2023-03-11T10:01:35.053Z,97862.00
2023-03-11T10:04:13.129Z,97871.00
2023-03-11T10:06:41.128Z,97870.00
2023-03-11T10:09:13.598Z,97868.00
2023-03-11T10:12:19.406Z,97868.00
2023-03-11T10:15:10.196Z,97880.00
2023-03-11T10:18:02.742Z,97880.00
2023-03-11T10:20:47.770Z,97878.00
2023-03-11T10:23:26.145Z,97872.00
2023-03-11T10:26:05.251Z,97864.00
2023-03-11T10:28:46.945Z,97890.00
2023-03-11T10:31:20.250Z,97884.00
2023-03-11T10:33:56.479Z,97875.00
2023-03-11T10:36:29.519Z,97871.00
2023-03-11T10:38:56.257Z,97877.00
2023-03-11T10:41:42.955Z,97886.00
2023-03-11T10:44:23.841Z,97900.00
2023-03-11T10:46:50.380Z,97896.00
2023-03-11T10:49:18.612Z,97883.00
2023-03-11T10:51:50.414Z,97891.00
2023-03-11T10:54:28.142Z,97896.00
2023-03-11T10:56:57.960Z,97894.00
2023-03-11T10:59:28.177Z,97892.00
2023-03-11T11:01:57.910Z,97911.00
2023-03-11T11:04:39.715Z,97897.00
2023-03-11T11:07:28.678Z,97886.00
2023-03-11T11:10:13.627Z,97893.00
2023-03-11T11:12:55.954Z,97889.00
2023-03-11T11:15:27.709Z,97890.00
2023-03-11T11:18:03.552Z,97886.00
2023-03-11T11:20:32.348Z,97886.00
2023-03-11T11:23:01.646Z,97893.00
2023-03-11T11:25:40.618Z,97887.00
2023-03-11T11:28:19.600Z,97898.00
2023-03-11T11:31:04.843Z,97901.00
2023-03-11T11:33:50.282Z,97885.00
2023-03-11T11:36:18.152Z,97887.00
2023-03-11T11:38:44.701Z,97886.00
2023-03-11T11:41:17.587Z,97889.00
2023-03-11T11:43:52.293Z,97889.00
2023-03-11T11:46:23.099Z,97890.00
2023-03-11T11:48:56.592Z,97887.00
2023-03-11T11:51:41.022Z,97876.00
2023-03-11T11:54:15.291Z,97891.00
2023-03-11T11:56:42.060Z,97884.00
2023-03-11T11:59:22.988Z,97889.00
2023-03-11T12:02:21.084Z,97881.00
2023-03-11T12:04:57.435Z,97885.00
2023-03-11T12:07:38.545Z,97876.00
2023-03-11T12:10:23.436Z,97881.00
2023-03-11T12:12:59.349Z,97884.00
2023-03-11T12:15:53.692Z,97871.00
2023-03-11T12:18:42.563Z,97871.00
2023-03-11T12:21:32.592Z,97874.00
2023-03-11T12:24:28.337Z,97872.00
2023-03-11T12:27:00.193Z,97880.00
2023-03-11T12:29:34.200Z,97881.00
2023-03-11T12:32:01.750Z,97872.00
2023-03-11T12:34:34.081Z,97869.00
2023-03-11T12:37:06.232Z,97862.00
2023-03-11T12:39:36.606Z,97862.00
2023-03-11T12:42:18.770Z,97851.00
2023-03-11T12:44:49.372Z,97844.00
2023-03-11T12:47:29.051Z,97841.00
2023-03-11T12:50:19.932Z,97850.00
2023-03-11T12:52:53.545Z,97856.00
2023-03-11T12:55:32.352Z,97864.00
2023-03-11T12:58:07.243Z,97874.00
2023-03-11T13:01:16.125Z,97873.00
2023-03-11T13:04:15.150Z,97875.00
2023-03-11T13:07:08.334Z,97887.00
2023-03-11T13:09:34.990Z,97888.00
2023-03-11T13:12:01.636Z,97881.00
2023-03-11T13:14:31.053Z,97883.00
2023-03-11T13:17:23.818Z,97858.00
2023-03-11T13:19:58.249Z,97867.00
2023-03-11T13:22:43.422Z,97859.00
2023-03-11T13:25:32.823Z,97859.00
2023-03-11T13:28:30.292Z,97861.00
2023-03-11T13:31:27.791Z,97873.00
2023-03-11T13:33:55.964Z,97866.00
2023-03-11T13:36:37.095Z,97869.00
2023-03-11T13:39:41.329Z,97872.00
2023-03-11T13:42:23.518Z,97876.00
2023-03-11T13:44:50.996Z,97874.00
2023-03-11T13:47:19.064Z,97879.00
2023-03-11T13:50:09.960Z,97888.00
2023-03-11T13:52:48.619Z,97887.00
2023-03-11T13:55:26.739Z,97885.00
2023-03-11T13:57:56.033Z,97870.00
2023-03-11T14:00:25.272Z,97879.00
2023-03-11T14:02:55.433Z,97868.00
2023-03-11T14:05:42.619Z,97877.00
2023-03-11T14:08:23.706Z,97882.00
2023-03-11T14:11:00.058Z,97887.00
2023-03-11T14:13:31.952Z,97888.00
2023-03-11T14:16:03.333Z,97901.00
2023-03-11T14:18:34.479Z,97907.00
2023-03-11T14:21:02.579Z,97909.00
2023-03-11T14:23:33.567Z,97906.00
2023-03-11T14:26:02.420Z,97913.00
2023-03-11T14:28:33.023Z,97908.00
2023-03-11T14:31:01.045Z,97905.00
2023-03-11T14:33:28.205Z,97909.00
2023-03-11T14:36:07.104Z,97903.00
2023-03-11T14:38:33.971Z,97890.00
2023-03-11T14:41:04.327Z,97901.00
2023-03-11T14:43:39.204Z,97891.00
2023-03-11T14:46:07.612Z,97892.00
2023-03-11T14:48:40.137Z,97900.00
2023-03-11T14:51:23.671Z,97895.00
2023-03-11T14:54:14.369Z,97900.00
2023-03-11T14:56:44.028Z,97893.00
2023-03-11T14:59:18.662Z,97893.00
2023-03-11T15:01:47.151Z,97895.00
2023-03-11T15:04:16.150Z,97899.00
2023-03-11T15:06:44.929Z,97907.00
2023-03-11T15:09:20.142Z,97904.00
2023-03-11T15:11:48.584Z,97905.00
2023-03-11T15:14:33.268Z,97907.00
2023-03-11T15:17:34.884Z,97918.00
2023-03-11T15:20:02.167Z,97918.00
2023-03-11T15:22:41.236Z,97908.00
2023-03-11T15:25:19.561Z,97909.00
2023-03-11T15:27:46.515Z,97908.00
2023-03-11T15:30:25.126Z,97914.00
2023-03-11T15:32:52.546Z,97906.00
2023-03-11T15:35:30.631Z,97899.00
2023-03-11T15:38:25.336Z,97903.00
2023-03-11T15:40:54.981Z,97907.00
2023-03-11T15:43:31.194Z,97901.00
2023-03-11T15:46:00.030Z,97902.00
2023-03-11T15:48:29.024Z,97908.00
2023-03-11T15:51:00.393Z,97911.00
2023-03-11T15:53:28.010Z,97908.00
2023-03-11T15:56:06.362Z,97908.00
2023-03-11T15:58:33.841Z,97917.00
2023-03-11T16:01:00.488Z,97921.00
2023-03-11T16:03:27.144Z,97926.00
2023-03-11T16:05:54.102Z,97918.00
2023-03-11T16:08:20.673Z,97930.00
2023-03-11T16:10:47.363Z,97936.00
2023-03-11T16:13:15.569Z,97920.00
2023-03-11T16:15:43.344Z,97930.00
2023-03-11T16:18:10.600Z,97928.00
2023-03-11T16:20:44.251Z,97930.00
2023-03-11T16:23:20.042Z,97937.00
2023-03-11T16:25:47.173Z,97931.00
2023-03-11T16:28:15.804Z,97934.00
2023-03-11T16:30:42.788Z,97938.00
2023-03-11T16:33:09.481Z,97941.00
2023-03-11T16:35:36.112Z,97945.00
2023-03-11T16:38:02.720Z,97944.00
2023-03-11T16:40:29.642Z,97945.00
2023-03-11T16:43:01.783Z,97953.00
2023-03-11T16:45:28.701Z,97948.00
2023-03-11T16:47:55.264Z,97966.00
2023-03-11T16:50:24.277Z,97968.00
2023-03-11T16:52:52.334Z,97971.00
2023-03-11T16:55:19.122Z,97984.00
2023-03-11T16:57:45.850Z,97968.00
2023-03-11T17:00:14.830Z,97969.00
2023-03-11T17:02:41.602Z,97980.00
2023-03-11T17:05:09.237Z,97977.00
2023-03-11T17:07:39.184Z,97969.00
2023-03-11T17:10:07.230Z,97977.00
2023-03-11T17:12:33.994Z,97979.00
2023-03-11T17:15:00.628Z,97976.00
2023-03-11T17:17:27.366Z,97977.00
2023-03-11T17:19:53.941Z,97980.00
2023-03-11T17:22:20.512Z,97990.00
2023-03-11T17:24:47.221Z,97995.00
2023-03-11T17:27:13.858Z,97990.00
2023-03-11T17:29:40.412Z,97987.00
2023-03-11T17:32:07.585Z,97991.00
2023-03-11T17:34:34.071Z,97992.00
2023-03-11T17:37:00.654Z,97985.00
2023-03-11T17:39:27.199Z,97995.00
2023-03-11T17:41:53.757Z,98001.00
2023-03-11T17:44:20.239Z,98008.00
2023-03-11T17:46:46.932Z,98005.00
2023-03-11T17:49:14.771Z,98002.00
2023-03-11T17:51:41.337Z,98012.00
2023-03-11T17:54:07.887Z,98009.00
2023-03-11T17:56:34.523Z,98012.00
2023-03-11T17:59:01.272Z,98018.00
2023-03-11T18:01:29.244Z,98021.00
2023-03-11T18:03:55.948Z,98021.00
2023-03-11T18:06:23.343Z,98027.00
2023-03-11T18:08:50.513Z,98028.00
2023-03-11T18:11:20.309Z,98026.00
2023-03-11T18:13:47.002Z,98028.00
2023-03-11T18:16:19.555Z,98029.00
2023-03-11T18:18:47.156Z,98032.00
2023-03-11T18:21:16.399Z,98041.00
2023-03-11T18:23:43.465Z,98041.00
2023-03-11T18:26:11.917Z,98034.00
2023-03-11T18:28:38.968Z,98032.00
2023-03-11T18:31:08.415Z,98034.00
2023-03-11T18:33:35.685Z,98035.00
2023-03-11T18:36:14.571Z,98034.00
2023-03-11T18:38:41.273Z,98031.00
2023-03-11T18:41:07.714Z,98043.00
2023-03-11T18:43:34.477Z,98041.00
2023-03-11T18:46:01.635Z,98040.00
2023-03-11T18:48:28.583Z,98043.00
2023-03-11T18:50:55.584Z,98033.00
2023-03-11T18:53:24.786Z,98044.00
2023-03-11T18:55:52.863Z,98039.00
2023-03-11T18:58:19.809Z,98052.00
2023-03-11T19:00:46.364Z,98053.00
2023-03-11T19:03:13.253Z,98054.00
2023-03-11T19:05:39.743Z,98044.00
2023-03-11T19:08:06.269Z,98052.00
2023-03-11T19:10:32.719Z,98060.00
2023-03-11T19:12:59.185Z,98062.00
2023-03-11T19:15:25.680Z,98056.00
2023-03-11T19:18:05.921Z,98054.00
2023-03-11T19:20:32.579Z,98062.00
2023-03-11T19:22:59.242Z,98051.00
2023-03-11T19:25:27.758Z,98050.00
2023-03-11T19:27:55.089Z,98055.00
2023-03-11T19:30:22.021Z,98050.00
2023-03-11T19:32:52.644Z,98062.00
2023-03-11T19:35:23.557Z,98064.00
2023-03-11T19:37:57.102Z,98071.00
2023-03-11T19:40:23.763Z,98076.00
2023-03-11T19:42:50.321Z,98073.00
2023-03-11T19:45:16.896Z,98078.00
2023-03-11T19:47:46.416Z,98085.00
2023-03-11T19:50:12.970Z,98081.00
2023-03-11T19:52:39.585Z,98075.00
2023-03-11T19:55:06.720Z,98087.00
2023-03-11T19:57:33.268Z,98089.00
2023-03-11T19:59:59.840Z,98093.00
2023-03-11T20:02:26.445Z,98099.00
2023-03-11T20:04:53.101Z,98102.00
2023-03-11T20:07:19.779Z,98101.00
2023-03-11T20:09:46.475Z,98107.00
2023-03-11T20:12:13.092Z,98111.00
2023-03-11T20:14:40.941Z,98108.00
2023-03-11T20:17:07.947Z,98111.00
2023-03-11T20:19:35.513Z,98111.00
2023-03-11T20:22:02.250Z,98115.00
2023-03-11T20:24:28.753Z,98108.00
2023-03-11T20:26:55.306Z,98110.00
2023-03-11T20:29:21.851Z,98099.00
2023-03-11T20:31:48.524Z,98109.00
2023-03-11T20:34:14.992Z,98115.00
2023-03-11T20:36:41.480Z,98116.00
2023-03-11T20:39:10.479Z,98113.00
2023-03-11T20:41:39.413Z,98109.00
2023-03-11T20:44:08.101Z,98117.00
2023-03-11T20:46:34.866Z,98110.00
2023-03-11T20:49:01.975Z,98108.00
2023-03-11T20:51:28.490Z,98112.00
2023-03-11T20:53:55.198Z,98118.00
2023-03-11T20:56:24.919Z,98119.00
2023-03-11T20:58:52.501Z,98124.00
2023-03-11T21:01:25.307Z,98122.00
2023-03-11T21:03:57.622Z,98116.00
2023-03-11T21:06:26.862Z,98128.00
2023-03-11T21:08:55.474Z,98123.00
2023-03-11T21:11:22.824Z,98121.00
2023-03-11T21:13:49.531Z,98130.00
2023-03-11T21:16:16.433Z,98128.00
2023-03-11T21:18:44.529Z,98126.00
2023-03-11T21:21:12.863Z,98124.00
2023-03-11T21:23:40.884Z,98131.00
2023-03-11T21:26:08.231Z,98126.00
2023-03-11T21:28:35.331Z,98123.00
2023-03-11T21:31:10.664Z,98130.00
2023-03-11T21:33:38.638Z,98107.00
2023-03-11T21:36:06.201Z,98117.00
2023-03-11T21:38:33.695Z,98120.00
2023-03-11T21:41:15.848Z,98117.00
2023-03-11T21:43:43.130Z,98108.00
2023-03-11T21:46:12.591Z,98114.00
2023-03-11T21:48:39.277Z,98115.00
2023-03-11T21:51:06.612Z,98116.00
2023-03-11T21:53:33.426Z,98116.00
2023-03-11T21:56:00.055Z,98124.00
2023-03-11T21:58:27.377Z,98122.00
2023-03-11T22:00:57.146Z,98123.00
2023-03-11T22:03:23.666Z,98119.00
2023-03-11T22:05:59.186Z,98121.00
2023-03-11T22:08:29.484Z,98121.00
2023-03-11T22:10:56.094Z,98122.00
2023-03-11T22:13:23.259Z,98126.00
2023-03-11T22:15:50.091Z,98123.00
2023-03-11T22:18:16.784Z,98118.00
2023-03-11T22:20:43.682Z,98113.00
2023-03-11T22:23:10.533Z,98114.00
2023-03-11T22:25:37.175Z,98116.00
2023-03-11T22:28:04.141Z,98128.00
2023-03-11T22:30:30.754Z,98115.00
2023-03-11T22:32:57.271Z,98105.00
2023-03-11T22:35:23.775Z,98116.00
2023-03-11T22:37:50.278Z,98110.00
2023-03-11T22:40:16.793Z,98114.00
2023-03-11T22:42:43.265Z,98110.00
2023-03-11T22:45:10.161Z,98113.00
2023-03-11T22:47:36.723Z,98109.00
2023-03-11T22:50:04.038Z,98102.00
2023-03-11T22:52:30.627Z,98107.00
2023-03-11T22:54:57.222Z,98119.00
2023-03-11T22:57:23.765Z,98106.00
2023-03-11T22:59:50.333Z,98106.00
2023-03-11T23:02:16.788Z,98115.00
2023-03-11T23:04:46.505Z,98105.00
2023-03-11T23:07:13.203Z,98114.00
2023-03-11T23:09:39.776Z,98117.00
2023-03-11T23:12:06.926Z,98120.00
2023-03-11T23:14:44.603Z,98116.00
2023-03-11T23:17:12.087Z,98108.00
2023-03-11T23:19:38.769Z,98114.00
2023-03-11T23:22:05.415Z,98113.00
2023-03-11T23:24:31.903Z,98106.00
2023-03-11T23:26:58.373Z,98112.00
2023-03-11T23:29:25.057Z,98107.00
2023-03-11T23:31:51.507Z,98102.00
2023-03-11T23:34:17.979Z,98109.00
2023-03-11T23:36:44.469Z,98112.00
2023-03-11T23:39:11.086Z,98105.00
2023-03-11T23:41:37.970Z,98107.00
2023-03-11T23:44:05.064Z,98102.00
2023-03-11T23:46:32.001Z,98105.00
2023-03-11T23:48:58.861Z,98108.00
2023-03-11T23:51:25.385Z,98092.00
2023-03-11T23:53:51.994Z,98112.00
2023-03-11T23:56:18.647Z,98112.00
2023-03-11T23:58:45.792Z,98110.00
